Ana Sayfa
METAR-TAF:

METAR-TAF

Havaalanları :

Çengdu Shuangliu Uluslararası Havalimanı

Çengdu, Çin

Enlem: 30-40N, Boylam: 104-01E, yükseklik: 508 m

Güncel hava durumu gözlemi

Rapor saat 08:00 UTC de 44 dakika önce yapıldı.
Rüzgar doğu/güneydoğudan 4 kt, kuzeydoğu ve güney arasında değişken
Sıcaklık 14°C
Nem 55%
Basınç 1018 hPa
Görüş mesafesi: 7000 m
3300 ft yükseklikte az bulutlu

METAR: ZUUU 230800Z 12002MPS 040V170 7000 FEW033 14/05 Q1018 NOSIG

Saat: 16:44 (08:44 UTC)

Tahmin

Rapor saat 02:10 UTC de 6 saat ve 34 dakika önce yapıldı.
Ayın 23'si saat 06 UTC'den ayın 24'si saat 06 UTC'ye kadar geçerli Tahmin
Rüzgar güney/güneybatıdan 6 kt
Görüş mesafesi: 5000 m
5000 ft yükseklikte parçalı bulutlu
Pus

TAF: ZUUU 230210Z 2306/2406 20003MPS 5000 BR SCT050 TX16/2307Z TN09/2323Z

4.000'den fazla havaalanı için hava durumu gözlemleri ve tahminleri (METAR ve TAF raporları).

Kullanılabilir istasyonlar harita üzerinde sarı ve kırmızı noktalarla gösterilir.

İstasyonun adını görmek için fareyi noktanın üzerinde gezdirin.

Sonrasında hava gözlem ve tahminlerini görmek için tıklayın.

Haritayı değiştirmek için: yaklaştırmak için siyah artı işaretli yeşil düğmeye ve uzaklaştırmak için de eksi işaretli düğmeye hızla tıklayın; bitişik haritalar için yeşil okları kullanın.


METAR-TAF: